Columbus, Ohio
Traffic Map
Current Weather Conditions
Columbus, Ohio
Overcast Moderate Fog
Overcast
59°
Feels Like: 59°
Wind Chill: 59° Ceiling: 300
Heat Index: 59° Visibility: 0.5mi
Dew Point: 59° Wind: 6mph
Humidity: 100% Direction: 100° (E)
Pressure: 29.97in Gusts: 0mph
Raw Report DataKCMH 301051Z 10005KT 1/2SM R28L/3500V4000FT FG OVC003 15/15 A2997 RMK AO2 SLP145 T01500150 $
Traffic Incident Summary
Active as of:
Severity:
Category:
InformationThere was an issue retrieving the traffic information for this location. Please try a different location or try again shortly.
Advertisements
Track Severe Weather on mobile